sensor_id;sensor_type;location;lat;lon;timestamp;P1;durP1;ratioP1;P2;durP2;ratioP2
28353;SDS011;15603;50.878;8.036;2022-08-21T00:00:50;14.60;;;5.78;;
28353;SDS011;15603;50.878;8.036;2022-08-21T00:03:17;13.52;;;4.18;;
28353;SDS011;15603;50.878;8.036;2022-08-21T00:05:47;11.13;;;4.05;;
28353;SDS011;15603;50.878;8.036;2022-08-21T00:08:17;11.37;;;5.87;;
28353;SDS011;15603;50.878;8.036;2022-08-21T00:10:45;9.48;;;4.60;;
28353;SDS011;15603;50.878;8.036;2022-08-21T00:13:14;8.70;;;4.78;;
28353;SDS011;15603;50.878;8.036;2022-08-21T00:15:44;10.93;;;5.40;;
28353;SDS011;15603;50.878;8.036;2022-08-21T00:18:12;12.73;;;5.68;;
28353;SDS011;15603;50.878;8.036;2022-08-21T00:20:40;17.08;;;5.57;;
28353;SDS011;15603;50.878;8.036;2022-08-21T00:23:08;8.00;;;4.47;;
28353;SDS011;15603;50.878;8.036;2022-08-21T00:25:36;10.13;;;4.85;;
28353;SDS011;15603;50.878;8.036;2022-08-21T00:28:04;11.32;;;4.88;;
28353;SDS011;15603;50.878;8.036;2022-08-21T00:30:31;9.05;;;4.78;;
28353;SDS011;15603;50.878;8.036;2022-08-21T00:32:58;7.22;;;4.20;;
28353;SDS011;15603;50.878;8.036;2022-08-21T00:35:27;8.75;;;4.88;;
28353;SDS011;15603;50.878;8.036;2022-08-21T00:37:57;8.18;;;3.85;;
28353;SDS011;15603;50.878;8.036;2022-08-21T00:40:27;10.43;;;4.82;;
28353;SDS011;15603;50.878;8.036;2022-08-21T00:42:57;13.93;;;4.93;;
28353;SDS011;15603;50.878;8.036;2022-08-21T00:45:24;11.77;;;5.25;;
28353;SDS011;15603;50.878;8.036;2022-08-21T00:47:52;9.65;;;5.20;;
28353;SDS011;15603;50.878;8.036;2022-08-21T00:50:22;9.02;;;4.50;;
28353;SDS011;15603;50.878;8.036;2022-08-21T00:52:52;20.10;;;5.43;;
28353;SDS011;15603;50.878;8.036;2022-08-21T00:55:20;13.20;;;5.32;;
28353;SDS011;15603;50.878;8.036;2022-08-21T00:57:51;9.23;;;4.32;;
28353;SDS011;15603;50.878;8.036;2022-08-21T01:00:23;10.18;;;4.60;;
28353;SDS011;15603;50.878;8.036;2022-08-21T01:02:55;11.07;;;4.63;;
28353;SDS011;15603;50.878;8.036;2022-08-21T01:05:24;12.02;;;4.47;;
28353;SDS011;15603;50.878;8.036;2022-08-21T01:07:53;13.13;;;5.50;;
28353;SDS011;15603;50.878;8.036;2022-08-21T01:10:29;10.25;;;5.05;;
28353;SDS011;15603;50.878;8.036;2022-08-21T01:12:57;9.25;;;4.65;;
28353;SDS011;15603;50.878;8.036;2022-08-21T01:15:27;11.88;;;6.32;;
28353;SDS011;15603;50.878;8.036;2022-08-21T01:17:59;12.25;;;5.30;;
28353;SDS011;15603;50.878;8.036;2022-08-21T01:20:27;8.52;;;5.68;;
28353;SDS011;15603;50.878;8.036;2022-08-21T01:22:59;8.55;;;4.70;;
28353;SDS011;15603;50.878;8.036;2022-08-21T01:25:28;10.75;;;5.70;;
28353;SDS011;15603;50.878;8.036;2022-08-21T01:27:56;10.40;;;4.90;;
28353;SDS011;15603;50.878;8.036;2022-08-21T01:30:27;12.63;;;6.13;;
28353;SDS011;15603;50.878;8.036;2022-08-21T01:32:55;14.57;;;5.25;;
28353;SDS011;15603;50.878;8.036;2022-08-21T01:35:23;10.07;;;5.07;;
28353;SDS011;15603;50.878;8.036;2022-08-21T01:37:50;9.50;;;5.10;;
28353;SDS011;15603;50.878;8.036;2022-08-21T01:40:17;7.45;;;4.82;;
28353;SDS011;15603;50.878;8.036;2022-08-21T01:42:45;12.23;;;5.55;;
28353;SDS011;15603;50.878;8.036;2022-08-21T01:45:12;7.88;;;4.95;;
28353;SDS011;15603;50.878;8.036;2022-08-21T01:47:40;12.35;;;4.35;;
28353;SDS011;15603;50.878;8.036;2022-08-21T01:50:10;7.03;;;4.40;;
28353;SDS011;15603;50.878;8.036;2022-08-21T01:52:39;9.70;;;4.82;;
28353;SDS011;15603;50.878;8.036;2022-08-21T01:55:06;11.15;;;5.10;;
28353;SDS011;15603;50.878;8.036;2022-08-21T01:57:35;9.20;;;5.28;;
28353;SDS011;15603;50.878;8.036;2022-08-21T02:00:04;9.30;;;5.15;;
28353;SDS011;15603;50.878;8.036;2022-08-21T02:02:38;12.65;;;5.85;;
28353;SDS011;15603;50.878;8.036;2022-08-21T02:05:07;9.88;;;4.80;;
28353;SDS011;15603;50.878;8.036;2022-08-21T02:07:36;9.70;;;4.50;;
28353;SDS011;15603;50.878;8.036;2022-08-21T02:10:16;9.27;;;4.90;;
28353;SDS011;15603;50.878;8.036;2022-08-21T02:12:48;10.15;;;6.60;;
28353;SDS011;15603;50.878;8.036;2022-08-21T02:15:16;10.07;;;5.30;;
28353;SDS011;15603;50.878;8.036;2022-08-21T02:17:45;9.73;;;4.75;;
28353;SDS011;15603;50.878;8.036;2022-08-21T02:20:20;11.35;;;5.55;;
28353;SDS011;15603;50.878;8.036;2022-08-21T02:22:49;8.73;;;4.93;;
28353;SDS011;15603;50.878;8.036;2022-08-21T02:25:18;12.40;;;5.45;;
28353;SDS011;15603;50.878;8.036;2022-08-21T02:27:46;11.43;;;5.45;;
28353;SDS011;15603;50.878;8.036;2022-08-21T02:30:15;9.85;;;5.22;;
28353;SDS011;15603;50.878;8.036;2022-08-21T02:32:45;10.15;;;5.82;;
28353;SDS011;15603;50.878;8.036;2022-08-21T02:35:12;13.27;;;5.18;;
28353;SDS011;15603;50.878;8.036;2022-08-21T02:37:47;9.35;;;5.25;;
28353;SDS011;15603;50.878;8.036;2022-08-21T02:40:17;10.90;;;5.28;;
28353;SDS011;15603;50.878;8.036;2022-08-21T02:42:46;19.05;;;6.20;;
28353;SDS011;15603;50.878;8.036;2022-08-21T02:45:14;12.90;;;5.38;;
28353;SDS011;15603;50.878;8.036;2022-08-21T02:47:50;11.88;;;5.75;;
28353;SDS011;15603;50.878;8.036;2022-08-21T02:50:24;10.85;;;5.10;;
28353;SDS011;15603;50.878;8.036;2022-08-21T02:52:54;9.95;;;5.18;;
28353;SDS011;15603;50.878;8.036;2022-08-21T02:55:22;9.15;;;5.05;;
28353;SDS011;15603;50.878;8.036;2022-08-21T02:57:50;9.20;;;4.90;;
28353;SDS011;15603;50.878;8.036;2022-08-21T03:00:17;8.77;;;4.82;;
28353;SDS011;15603;50.878;8.036;2022-08-21T03:02:44;7.47;;;4.78;;
28353;SDS011;15603;50.878;8.036;2022-08-21T03:05:13;8.05;;;4.50;;
28353;SDS011;15603;50.878;8.036;2022-08-21T03:07:42;12.27;;;4.85;;
28353;SDS011;15603;50.878;8.036;2022-08-21T03:10:10;7.57;;;4.60;;
28353;SDS011;15603;50.878;8.036;2022-08-21T03:12:38;10.32;;;4.72;;
28353;SDS011;15603;50.878;8.036;2022-08-21T03:15:06;9.10;;;4.50;;
28353;SDS011;15603;50.878;8.036;2022-08-21T03:17:36;8.82;;;4.35;;
28353;SDS011;15603;50.878;8.036;2022-08-21T03:20:04;8.65;;;4.47;;
28353;SDS011;15603;50.878;8.036;2022-08-21T03:22:33;10.80;;;4.72;;
28353;SDS011;15603;50.878;8.036;2022-08-21T03:25:00;9.43;;;4.43;;
28353;SDS011;15603;50.878;8.036;2022-08-21T03:27:32;8.63;;;4.60;;
28353;SDS011;15603;50.878;8.036;2022-08-21T03:30:01;10.52;;;4.78;;
28353;SDS011;15603;50.878;8.036;2022-08-21T03:32:31;10.75;;;4.68;;
28353;SDS011;15603;50.878;8.036;2022-08-21T03:34:59;11.07;;;5.20;;
28353;SDS011;15603;50.878;8.036;2022-08-21T03:37:26;7.15;;;4.25;;
28353;SDS011;15603;50.878;8.036;2022-08-21T03:39:54;8.98;;;5.05;;
28353;SDS011;15603;50.878;8.036;2022-08-21T03:42:21;11.77;;;4.75;;
28353;SDS011;15603;50.878;8.036;2022-08-21T03:44:49;11.43;;;4.93;;
28353;SDS011;15603;50.878;8.036;2022-08-21T03:47:16;10.23;;;4.72;;
28353;SDS011;15603;50.878;8.036;2022-08-21T03:49:44;9.40;;;4.93;;
28353;SDS011;15603;50.878;8.036;2022-08-21T03:52:11;9.85;;;5.50;;
28353;SDS011;15603;50.878;8.036;2022-08-21T03:54:38;9.15;;;4.25;;
28353;SDS011;15603;50.878;8.036;2022-08-21T03:57:08;10.05;;;4.45;;
28353;SDS011;15603;50.878;8.036;2022-08-21T03:59:36;9.43;;;5.28;;
28353;SDS011;15603;50.878;8.036;2022-08-21T04:02:04;13.90;;;5.43;;
28353;SDS011;15603;50.878;8.036;2022-08-21T04:04:33;10.95;;;5.63;;
28353;SDS011;15603;50.878;8.036;2022-08-21T04:07:00;9.82;;;5.10;;
28353;SDS011;15603;50.878;8.036;2022-08-21T04:09:28;8.90;;;5.00;;
28353;SDS011;15603;50.878;8.036;2022-08-21T04:11:55;14.13;;;5.30;;
28353;SDS011;15603;50.878;8.036;2022-08-21T04:14:23;9.57;;;5.63;;
28353;SDS011;15603;50.878;8.036;2022-08-21T04:16:50;11.00;;;5.40;;
28353;SDS011;15603;50.878;8.036;2022-08-21T04:19:17;8.60;;;4.85;;
28353;SDS011;15603;50.878;8.036;2022-08-21T04:21:44;9.68;;;5.13;;
28353;SDS011;15603;50.878;8.036;2022-08-21T04:24:11;11.05;;;5.38;;
28353;SDS011;15603;50.878;8.036;2022-08-21T04:26:38;8.88;;;5.13;;
28353;SDS011;15603;50.878;8.036;2022-08-21T04:29:06;11.25;;;5.70;;
28353;SDS011;15603;50.878;8.036;2022-08-21T04:31:36;9.77;;;5.72;;
28353;SDS011;15603;50.878;8.036;2022-08-21T04:34:04;10.32;;;5.68;;
28353;SDS011;15603;50.878;8.036;2022-08-21T04:36:32;8.27;;;4.85;;
28353;SDS011;15603;50.878;8.036;2022-08-21T04:39:00;8.52;;;4.38;;
28353;SDS011;15603;50.878;8.036;2022-08-21T04:41:29;8.02;;;4.72;;
28353;SDS011;15603;50.878;8.036;2022-08-21T04:43:56;9.63;;;4.60;;
28353;SDS011;15603;50.878;8.036;2022-08-21T04:46:24;9.13;;;4.65;;
28353;SDS011;15603;50.878;8.036;2022-08-21T04:48:51;7.50;;;4.50;;
28353;SDS011;15603;50.878;8.036;2022-08-21T04:51:23;8.52;;;4.35;;
28353;SDS011;15603;50.878;8.036;2022-08-21T04:53:57;11.02;;;3.88;;
28353;SDS011;15603;50.878;8.036;2022-08-21T04:56:29;11.38;;;4.07;;
28353;SDS011;15603;50.878;8.036;2022-08-21T04:58:59;5.13;;;3.60;;
28353;SDS011;15603;50.878;8.036;2022-08-21T05:01:32;8.65;;;4.18;;
28353;SDS011;15603;50.878;8.036;2022-08-21T05:04:02;8.30;;;4.23;;
28353;SDS011;15603;50.878;8.036;2022-08-21T05:06:33;10.25;;;4.25;;
28353;SDS011;15603;50.878;8.036;2022-08-21T05:09:03;10.90;;;3.95;;
28353;SDS011;15603;50.878;8.036;2022-08-21T05:11:31;9.23;;;4.13;;
28353;SDS011;15603;50.878;8.036;2022-08-21T05:13:59;10.45;;;4.22;;
28353;SDS011;15603;50.878;8.036;2022-08-21T05:16:26;8.65;;;3.60;;
28353;SDS011;15603;50.878;8.036;2022-08-21T05:19:06;11.80;;;4.28;;
28353;SDS011;15603;50.878;8.036;2022-08-21T05:21:34;8.85;;;4.55;;
28353;SDS011;15603;50.878;8.036;2022-08-21T05:24:04;6.80;;;4.57;;
28353;SDS011;15603;50.878;8.036;2022-08-21T05:26:31;8.07;;;4.30;;
28353;SDS011;15603;50.878;8.036;2022-08-21T05:28:58;9.52;;;4.47;;
28353;SDS011;15603;50.878;8.036;2022-08-21T05:31:25;8.73;;;4.20;;
28353;SDS011;15603;50.878;8.036;2022-08-21T05:33:52;7.38;;;4.25;;
28353;SDS011;15603;50.878;8.036;2022-08-21T05:36:21;10.85;;;4.70;;
28353;SDS011;15603;50.878;8.036;2022-08-21T05:38:49;8.45;;;4.75;;
28353;SDS011;15603;50.878;8.036;2022-08-21T05:41:16;15.25;;;5.70;;
28353;SDS011;15603;50.878;8.036;2022-08-21T05:43:43;13.75;;;6.00;;
28353;SDS011;15603;50.878;8.036;2022-08-21T05:46:10;10.93;;;6.25;;
28353;SDS011;15603;50.878;8.036;2022-08-21T05:48:38;14.63;;;7.68;;
28353;SDS011;15603;50.878;8.036;2022-08-21T05:51:09;17.58;;;7.88;;
28353;SDS011;15603;50.878;8.036;2022-08-21T05:53:40;19.83;;;7.95;;
28353;SDS011;15603;50.878;8.036;2022-08-21T05:56:09;11.90;;;6.43;;
28353;SDS011;15603;50.878;8.036;2022-08-21T05:58:37;12.68;;;6.50;;
28353;SDS011;15603;50.878;8.036;2022-08-21T06:01:04;14.68;;;6.85;;
28353;SDS011;15603;50.878;8.036;2022-08-21T06:03:33;17.70;;;7.03;;
28353;SDS011;15603;50.878;8.036;2022-08-21T06:06:02;16.10;;;6.47;;
28353;SDS011;15603;50.878;8.036;2022-08-21T06:08:29;15.45;;;6.78;;
28353;SDS011;15603;50.878;8.036;2022-08-21T06:10:58;14.27;;;6.63;;
28353;SDS011;15603;50.878;8.036;2022-08-21T06:13:27;18.52;;;6.85;;
28353;SDS011;15603;50.878;8.036;2022-08-21T06:16:11;15.88;;;6.63;;
28353;SDS011;15603;50.878;8.036;2022-08-21T06:18:42;16.58;;;6.70;;
28353;SDS011;15603;50.878;8.036;2022-08-21T06:21:11;20.23;;;6.60;;
28353;SDS011;15603;50.878;8.036;2022-08-21T06:23:40;19.08;;;7.00;;
28353;SDS011;15603;50.878;8.036;2022-08-21T06:26:08;19.73;;;5.95;;
28353;SDS011;15603;50.878;8.036;2022-08-21T06:28:36;13.13;;;6.10;;
28353;SDS011;15603;50.878;8.036;2022-08-21T06:31:17;16.90;;;7.10;;
28353;SDS011;15603;50.878;8.036;2022-08-21T06:33:47;14.07;;;6.97;;
28353;SDS011;15603;50.878;8.036;2022-08-21T06:36:14;10.63;;;6.18;;
28353;SDS011;15603;50.878;8.036;2022-08-21T06:38:42;13.63;;;5.65;;
28353;SDS011;15603;50.878;8.036;2022-08-21T06:41:17;10.63;;;5.18;;
28353;SDS011;15603;50.878;8.036;2022-08-21T06:43:53;11.02;;;5.28;;
28353;SDS011;15603;50.878;8.036;2022-08-21T06:46:21;8.23;;;4.85;;
28353;SDS011;15603;50.878;8.036;2022-08-21T06:48:53;10.53;;;5.67;;
28353;SDS011;15603;50.878;8.036;2022-08-21T06:51:20;11.75;;;5.03;;
28353;SDS011;15603;50.878;8.036;2022-08-21T06:53:49;18.40;;;5.47;;
28353;SDS011;15603;50.878;8.036;2022-08-21T06:56:16;11.52;;;5.22;;
28353;SDS011;15603;50.878;8.036;2022-08-21T06:58:43;11.05;;;4.97;;
28353;SDS011;15603;50.878;8.036;2022-08-21T07:01:11;14.25;;;5.30;;
28353;SDS011;15603;50.878;8.036;2022-08-21T07:03:39;13.02;;;5.43;;
28353;SDS011;15603;50.878;8.036;2022-08-21T07:06:08;13.10;;;6.00;;
28353;SDS011;15603;50.878;8.036;2022-08-21T07:08:37;17.00;;;6.55;;
28353;SDS011;15603;50.878;8.036;2022-08-21T07:11:07;11.30;;;4.82;;
28353;SDS011;15603;50.878;8.036;2022-08-21T07:13:44;17.10;;;6.28;;
28353;SDS011;15603;50.878;8.036;2022-08-21T07:16:12;11.88;;;5.25;;
28353;SDS011;15603;50.878;8.036;2022-08-21T07:18:39;13.07;;;4.97;;
28353;SDS011;15603;50.878;8.036;2022-08-21T07:21:07;11.57;;;4.93;;
28353;SDS011;15603;50.878;8.036;2022-08-21T07:23:36;13.50;;;5.15;;
28353;SDS011;15603;50.878;8.036;2022-08-21T07:26:09;11.13;;;5.15;;
28353;SDS011;15603;50.878;8.036;2022-08-21T07:28:37;9.77;;;4.22;;
28353;SDS011;15603;50.878;8.036;2022-08-21T07:31:05;11.48;;;4.32;;
28353;SDS011;15603;50.878;8.036;2022-08-21T07:33:33;11.88;;;5.20;;
28353;SDS011;15603;50.878;8.036;2022-08-21T07:36:00;7.68;;;3.42;;
28353;SDS011;15603;50.878;8.036;2022-08-21T07:38:28;9.40;;;4.47;;
28353;SDS011;15603;50.878;8.036;2022-08-21T07:40:55;10.20;;;4.32;;
28353;SDS011;15603;50.878;8.036;2022-08-21T07:43:25;13.85;;;5.45;;
28353;SDS011;15603;50.878;8.036;2022-08-21T07:45:53;13.60;;;5.10;;
28353;SDS011;15603;50.878;8.036;2022-08-21T07:48:21;9.95;;;5.50;;
28353;SDS011;15603;50.878;8.036;2022-08-21T07:50:49;12.30;;;5.32;;
28353;SDS011;15603;50.878;8.036;2022-08-21T07:53:17;12.45;;;4.90;;
28353;SDS011;15603;50.878;8.036;2022-08-21T07:55:44;12.55;;;5.30;;
28353;SDS011;15603;50.878;8.036;2022-08-21T07:58:12;15.20;;;5.68;;
28353;SDS011;15603;50.878;8.036;2022-08-21T08:00:39;12.73;;;5.05;;
28353;SDS011;15603;50.878;8.036;2022-08-21T08:03:07;12.65;;;5.03;;
28353;SDS011;15603;50.878;8.036;2022-08-21T08:05:36;12.13;;;4.72;;
28353;SDS011;15603;50.878;8.036;2022-08-21T08:08:06;11.43;;;4.93;;
28353;SDS011;15603;50.878;8.036;2022-08-21T08:10:35;15.80;;;4.95;;
28353;SDS011;15603;50.878;8.036;2022-08-21T08:13:04;11.68;;;4.53;;
28353;SDS011;15603;50.878;8.036;2022-08-21T08:15:36;20.73;;;5.20;;
28353;SDS011;15603;50.878;8.036;2022-08-21T08:18:04;16.77;;;6.32;;
28353;SDS011;15603;50.878;8.036;2022-08-21T08:20:31;12.57;;;4.32;;
28353;SDS011;15603;50.878;8.036;2022-08-21T08:22:58;10.30;;;4.63;;
28353;SDS011;15603;50.878;8.036;2022-08-21T08:25:26;13.77;;;4.93;;
28353;SDS011;15603;50.878;8.036;2022-08-21T08:28:03;11.73;;;4.47;;
28353;SDS011;15603;50.878;8.036;2022-08-21T08:30:46;11.10;;;5.00;;
28353;SDS011;15603;50.878;8.036;2022-08-21T08:33:13;18.40;;;5.10;;
28353;SDS011;15603;50.878;8.036;2022-08-21T08:35:42;15.95;;;4.15;;
28353;SDS011;15603;50.878;8.036;2022-08-21T08:38:12;9.50;;;3.17;;
28353;SDS011;15603;50.878;8.036;2022-08-21T08:40:47;6.95;;;2.22;;
28353;SDS011;15603;50.878;8.036;2022-08-21T08:43:54;18.75;;;4.38;;
28353;SDS011;15603;50.878;8.036;2022-08-21T08:46:33;11.45;;;4.38;;
28353;SDS011;15603;50.878;8.036;2022-08-21T08:49:06;10.60;;;3.92;;
28353;SDS011;15603;50.878;8.036;2022-08-21T08:51:44;7.30;;;2.85;;
28353;SDS011;15603;50.878;8.036;2022-08-21T08:54:21;10.15;;;3.67;;
28353;SDS011;15603;50.878;8.036;2022-08-21T08:57:16;14.63;;;2.72;;
28353;SDS011;15603;50.878;8.036;2022-08-21T08:59:48;4.55;;;2.03;;
28353;SDS011;15603;50.878;8.036;2022-08-21T09:02:19;11.23;;;2.60;;
28353;SDS011;15603;50.878;8.036;2022-08-21T09:04:47;10.07;;;2.75;;
28353;SDS011;15603;50.878;8.036;2022-08-21T09:07:32;6.32;;;2.22;;
28353;SDS011;15603;50.878;8.036;2022-08-21T09:10:21;7.70;;;2.25;;
28353;SDS011;15603;50.878;8.036;2022-08-21T09:13:02;8.30;;;2.83;;
28353;SDS011;15603;50.878;8.036;2022-08-21T09:15:51;11.35;;;2.78;;
28353;SDS011;15603;50.878;8.036;2022-08-21T09:21:37;10.02;;;2.45;;
28353;SDS011;15603;50.878;8.036;2022-08-21T09:27:08;7.72;;;2.35;;
28353;SDS011;15603;50.878;8.036;2022-08-21T09:29:42;7.18;;;1.95;;
28353;SDS011;15603;50.878;8.036;2022-08-21T09:32:15;7.13;;;2.22;;
28353;SDS011;15603;50.878;8.036;2022-08-21T09:37:54;8.65;;;2.60;;
28353;SDS011;15603;50.878;8.036;2022-08-21T09:40:40;13.15;;;2.05;;
28353;SDS011;15603;50.878;8.036;2022-08-21T09:45:38;6.13;;;1.60;;
28353;SDS011;15603;50.878;8.036;2022-08-21T09:48:10;8.65;;;2.03;;
28353;SDS011;15603;50.878;8.036;2022-08-21T09:50:38;7.78;;;1.73;;
28353;SDS011;15603;50.878;8.036;2022-08-21T09:53:13;10.75;;;2.90;;
28353;SDS011;15603;50.878;8.036;2022-08-21T09:58:34;5.30;;;1.45;;
28353;SDS011;15603;50.878;8.036;2022-08-21T10:01:05;5.80;;;1.80;;
28353;SDS011;15603;50.878;8.036;2022-08-21T10:03:33;7.38;;;1.40;;
28353;SDS011;15603;50.878;8.036;2022-08-21T10:06:04;5.03;;;1.40;;
28353;SDS011;15603;50.878;8.036;2022-08-21T10:08:37;7.75;;;1.52;;
28353;SDS011;15603;50.878;8.036;2022-08-21T10:11:07;6.93;;;1.73;;
28353;SDS011;15603;50.878;8.036;2022-08-21T10:22:12;10.38;;;1.80;;
28353;SDS011;15603;50.878;8.036;2022-08-21T10:25:09;7.32;;;1.90;;
28353;SDS011;15603;50.878;8.036;2022-08-21T10:33:38;6.22;;;2.72;;
28353;SDS011;15603;50.878;8.036;2022-08-21T10:36:18;6.43;;;1.58;;
28353;SDS011;15603;50.878;8.036;2022-08-21T10:49:40;11.02;;;1.73;;
28353;SDS011;15603;50.878;8.036;2022-08-21T10:55:22;2.38;;;0.90;;
28353;SDS011;15603;50.878;8.036;2022-08-21T11:00:30;5.90;;;1.55;;
28353;SDS011;15603;50.878;8.036;2022-08-21T11:03:20;5.25;;;1.60;;
28353;SDS011;15603;50.878;8.036;2022-08-21T11:08:50;5.80;;;1.08;;
28353;SDS011;15603;50.878;8.036;2022-08-21T11:11:29;7.53;;;1.30;;
28353;SDS011;15603;50.878;8.036;2022-08-21T11:14:09;5.63;;;1.33;;
28353;SDS011;15603;50.878;8.036;2022-08-21T11:17:06;3.65;;;1.00;;
28353;SDS011;15603;50.878;8.036;2022-08-21T11:19:54;7.07;;;0.90;;
28353;SDS011;15603;50.878;8.036;2022-08-21T11:22:54;4.35;;;1.30;;
28353;SDS011;15603;50.878;8.036;2022-08-21T11:25:34;7.72;;;1.70;;
28353;SDS011;15603;50.878;8.036;2022-08-21T11:28:23;6.28;;;1.33;;
28353;SDS011;15603;50.878;8.036;2022-08-21T11:38:46;7.28;;;1.23;;
28353;SDS011;15603;50.878;8.036;2022-08-21T11:41:38;5.13;;;1.88;;
28353;SDS011;15603;50.878;8.036;2022-08-21T11:44:22;6.25;;;0.88;;
28353;SDS011;15603;50.878;8.036;2022-08-21T11:52:57;5.95;;;1.23;;
28353;SDS011;15603;50.878;8.036;2022-08-21T11:55:32;4.45;;;1.30;;
28353;SDS011;15603;50.878;8.036;2022-08-21T12:00:42;4.47;;;0.95;;
28353;SDS011;15603;50.878;8.036;2022-08-21T12:03:15;5.80;;;1.23;;
28353;SDS011;15603;50.878;8.036;2022-08-21T12:05:54;3.08;;;1.02;;
28353;SDS011;15603;50.878;8.036;2022-08-21T12:08:32;3.85;;;0.95;;
28353;SDS011;15603;50.878;8.036;2022-08-21T12:11:04;4.20;;;1.00;;
28353;SDS011;15603;50.878;8.036;2022-08-21T12:13:35;2.38;;;0.80;;
28353;SDS011;15603;50.878;8.036;2022-08-21T12:16:31;9.85;;;1.25;;
28353;SDS011;15603;50.878;8.036;2022-08-21T12:19:07;4.88;;;0.85;;
28353;SDS011;15603;50.878;8.036;2022-08-21T12:21:47;3.45;;;0.90;;
28353;SDS011;15603;50.878;8.036;2022-08-21T12:26:57;1.98;;;0.65;;
28353;SDS011;15603;50.878;8.036;2022-08-21T12:34:42;2.30;;;0.80;;
28353;SDS011;15603;50.878;8.036;2022-08-21T12:37:20;7.40;;;1.02;;
28353;SDS011;15603;50.878;8.036;2022-08-21T12:39:52;3.53;;;0.60;;
28353;SDS011;15603;50.878;8.036;2022-08-21T12:42:30;1.10;;;0.60;;
28353;SDS011;15603;50.878;8.036;2022-08-21T12:45:09;2.25;;;0.60;;
28353;SDS011;15603;50.878;8.036;2022-08-21T12:48:06;2.20;;;0.80;;
28353;SDS011;15603;50.878;8.036;2022-08-21T12:50:46;2.05;;;0.80;;
28353;SDS011;15603;50.878;8.036;2022-08-21T12:53:22;4.30;;;0.93;;
28353;SDS011;15603;50.878;8.036;2022-08-21T12:55:53;2.38;;;0.60;;
28353;SDS011;15603;50.878;8.036;2022-08-21T12:58:26;4.55;;;1.00;;
28353;SDS011;15603;50.878;8.036;2022-08-21T13:01:04;2.40;;;0.60;;
28353;SDS011;15603;50.878;8.036;2022-08-21T13:03:34;2.83;;;1.00;;
28353;SDS011;15603;50.878;8.036;2022-08-21T13:06:04;3.70;;;0.88;;
28353;SDS011;15603;50.878;8.036;2022-08-21T13:08:33;2.15;;;0.70;;
28353;SDS011;15603;50.878;8.036;2022-08-21T13:11:06;4.20;;;0.85;;
28353;SDS011;15603;50.878;8.036;2022-08-21T13:13:41;6.43;;;1.17;;
28353;SDS011;15603;50.878;8.036;2022-08-21T13:16:22;7.47;;;1.45;;
28353;SDS011;15603;50.878;8.036;2022-08-21T13:21:26;5.32;;;0.95;;
28353;SDS011;15603;50.878;8.036;2022-08-21T13:24:19;4.75;;;0.88;;
28353;SDS011;15603;50.878;8.036;2022-08-21T13:27:18;3.22;;;0.73;;
28353;SDS011;15603;50.878;8.036;2022-08-21T13:32:50;0.93;;;0.50;;
28353;SDS011;15603;50.878;8.036;2022-08-21T13:35:27;3.42;;;0.80;;
28353;SDS011;15603;50.878;8.036;2022-08-21T13:37:58;5.03;;;0.82;;
28353;SDS011;15603;50.878;8.036;2022-08-21T13:40:30;2.17;;;0.73;;
28353;SDS011;15603;50.878;8.036;2022-08-21T13:43:10;0.88;;;0.57;;
28353;SDS011;15603;50.878;8.036;2022-08-21T13:45:49;3.97;;;0.95;;
28353;SDS011;15603;50.878;8.036;2022-08-21T13:48:18;3.05;;;0.68;;
28353;SDS011;15603;50.878;8.036;2022-08-21T13:50:47;3.45;;;1.17;;
28353;SDS011;15603;50.878;8.036;2022-08-21T13:55:50;3.60;;;1.02;;
28353;SDS011;15603;50.878;8.036;2022-08-21T13:58:41;1.50;;;0.60;;
28353;SDS011;15603;50.878;8.036;2022-08-21T14:01:49;4.15;;;0.68;;
28353;SDS011;15603;50.878;8.036;2022-08-21T14:04:20;2.22;;;0.57;;
28353;SDS011;15603;50.878;8.036;2022-08-21T14:06:50;1.30;;;0.63;;
28353;SDS011;15603;50.878;8.036;2022-08-21T14:15:27;2.03;;;0.52;;
28353;SDS011;15603;50.878;8.036;2022-08-21T14:18:14;2.92;;;0.75;;
28353;SDS011;15603;50.878;8.036;2022-08-21T14:20:45;3.08;;;0.85;;
28353;SDS011;15603;50.878;8.036;2022-08-21T14:23:23;1.38;;;0.60;;
28353;SDS011;15603;50.878;8.036;2022-08-21T14:25:52;2.85;;;0.60;;
28353;SDS011;15603;50.878;8.036;2022-08-21T14:28:28;1.52;;;0.55;;
28353;SDS011;15603;50.878;8.036;2022-08-21T14:30:55;2.30;;;0.70;;
28353;SDS011;15603;50.878;8.036;2022-08-21T14:33:31;1.35;;;0.40;;
28353;SDS011;15603;50.878;8.036;2022-08-21T14:35:59;1.52;;;0.50;;
28353;SDS011;15603;50.878;8.036;2022-08-21T14:38:28;1.13;;;0.52;;
28353;SDS011;15603;50.878;8.036;2022-08-21T14:40:59;1.50;;;0.40;;
28353;SDS011;15603;50.878;8.036;2022-08-21T14:43:43;1.85;;;0.50;;
28353;SDS011;15603;50.878;8.036;2022-08-21T14:46:12;4.20;;;0.82;;
28353;SDS011;15603;50.878;8.036;2022-08-21T14:48:46;4.68;;;0.57;;
28353;SDS011;15603;50.878;8.036;2022-08-21T14:51:14;4.63;;;0.70;;
28353;SDS011;15603;50.878;8.036;2022-08-21T14:53:41;1.95;;;0.50;;
28353;SDS011;15603;50.878;8.036;2022-08-21T14:56:08;0.73;;;0.40;;
28353;SDS011;15603;50.878;8.036;2022-08-21T14:58:43;2.05;;;0.55;;
28353;SDS011;15603;50.878;8.036;2022-08-21T15:01:13;0.85;;;0.50;;
28353;SDS011;15603;50.878;8.036;2022-08-21T15:03:42;1.17;;;0.50;;
28353;SDS011;15603;50.878;8.036;2022-08-21T15:06:09;3.72;;;0.43;;
28353;SDS011;15603;50.878;8.036;2022-08-21T15:08:37;2.75;;;0.55;;
28353;SDS011;15603;50.878;8.036;2022-08-21T15:11:05;1.52;;;0.52;;
28353;SDS011;15603;50.878;8.036;2022-08-21T15:13:40;3.30;;;0.60;;
28353;SDS011;15603;50.878;8.036;2022-08-21T15:16:08;4.22;;;0.57;;
28353;SDS011;15603;50.878;8.036;2022-08-21T15:18:38;6.47;;;0.90;;
28353;SDS011;15603;50.878;8.036;2022-08-21T15:21:05;1.33;;;0.60;;
28353;SDS011;15603;50.878;8.036;2022-08-21T15:23:32;3.13;;;0.60;;
28353;SDS011;15603;50.878;8.036;2022-08-21T15:25:59;3.22;;;0.80;;
28353;SDS011;15603;50.878;8.036;2022-08-21T15:28:28;3.85;;;0.60;;
28353;SDS011;15603;50.878;8.036;2022-08-21T15:30:59;2.35;;;0.60;;
28353;SDS011;15603;50.878;8.036;2022-08-21T15:33:27;2.47;;;0.75;;
28353;SDS011;15603;50.878;8.036;2022-08-21T15:35:54;4.63;;;1.33;;
28353;SDS011;15603;50.878;8.036;2022-08-21T15:38:21;1.85;;;0.60;;
28353;SDS011;15603;50.878;8.036;2022-08-21T15:40:48;2.80;;;0.57;;
28353;SDS011;15603;50.878;8.036;2022-08-21T15:44:04;6.80;;;1.20;;
28353;SDS011;15603;50.878;8.036;2022-08-21T15:46:13;3.42;;;0.70;;
28353;SDS011;15603;50.878;8.036;2022-08-21T15:48:42;3.17;;;0.80;;
28353;SDS011;15603;50.878;8.036;2022-08-21T15:51:10;1.58;;;0.80;;
28353;SDS011;15603;50.878;8.036;2022-08-21T15:53:38;10.57;;;0.95;;
28353;SDS011;15603;50.878;8.036;2022-08-21T15:56:10;1.52;;;0.45;;
28353;SDS011;15603;50.878;8.036;2022-08-21T15:58:49;1.60;;;0.47;;
28353;SDS011;15603;50.878;8.036;2022-08-21T16:01:19;2.67;;;0.57;;
28353;SDS011;15603;50.878;8.036;2022-08-21T16:03:48;1.67;;;0.70;;
28353;SDS011;15603;50.878;8.036;2022-08-21T16:06:18;2.00;;;0.90;;
28353;SDS011;15603;50.878;8.036;2022-08-21T16:09:05;2.85;;;0.85;;
28353;SDS011;15603;50.878;8.036;2022-08-21T16:11:32;2.13;;;0.60;;
28353;SDS011;15603;50.878;8.036;2022-08-21T16:13:59;4.03;;;0.85;;
28353;SDS011;15603;50.878;8.036;2022-08-21T16:16:26;3.08;;;0.85;;
28353;SDS011;15603;50.878;8.036;2022-08-21T16:18:57;3.78;;;0.70;;
28353;SDS011;15603;50.878;8.036;2022-08-21T16:21:24;1.60;;;0.55;;
28353;SDS011;15603;50.878;8.036;2022-08-21T16:23:51;2.47;;;0.70;;
28353;SDS011;15603;50.878;8.036;2022-08-21T16:26:20;5.53;;;1.35;;
28353;SDS011;15603;50.878;8.036;2022-08-21T16:28:47;1.35;;;0.73;;
28353;SDS011;15603;50.878;8.036;2022-08-21T16:31:18;4.10;;;1.23;;
28353;SDS011;15603;50.878;8.036;2022-08-21T16:33:48;5.18;;;1.23;;
28353;SDS011;15603;50.878;8.036;2022-08-21T16:36:22;2.28;;;0.70;;